»·PEaware :: UAL404 KSEA-KSFO

UAL404 :: KSEA-KSFO

FLIGHT INFORMATION

Flight Status: Arrived
Operator:
United Airlines
More flights by this operator :: More flights under this callsign
Pilot: Wadhah A. (6578)
Aircraft: BOEING 737-800
(B738)
More flights by this aircraft type
Origin: KSEA Seattle-Tacoma Intl
United States
Destination: KSFO San Francisco Intl
United States
More flights between these airports :: More routes between these airports
Route: +HAROB6 ERAVE Q1 ETCHY MLBEC BDEGA2
File this flight plan on PilotEdge
Remarks:
Altitude:
(Current/Filed)
39,000ft
Speed:
(Current/Filed)
450kts
Departed: 08-Jan-18 06:48 PM
Arrived: 08-Jan-18 08:40 PM
Distance/Time
Traveled:
590nm/1:51
Distance/Time
To Go:
Arrived

Flight Plot

Page will automatically refresh every two minutes.

Flight plan parsing failed; only flown route is shown


Map Options




Map Legend


Flown Route
Filed Route
Departure Airport
Arrival Airport
Navaid (VOR, NDB)
Fix

Horizontal Profiles

Position Reports

Time Latitude Longitude Heading Altitude Ground
Speed
08-Jan-18 18:31 47.441179 -122.300841 45 441ft 0kts
08-Jan-18 18:32 47.441179 -122.300841 45 441ft 0kts
08-Jan-18 18:33 47.441179 -122.300841 45 441ft 0kts
08-Jan-18 18:34 47.441179 -122.300841 45 441ft 0kts
08-Jan-18 18:35 47.441179 -122.300841 45 441ft 0kts
08-Jan-18 18:36 47.441179 -122.300841 45 441ft 0kts
08-Jan-18 18:37 47.441179 -122.300841 45 441ft 0kts
08-Jan-18 18:38 47.441179 -122.300841 45 441ft 0kts
08-Jan-18 18:39 47.441179 -122.300841 45 441ft 0kts
08-Jan-18 18:40 47.441179 -122.300841 45 441ft 0kts
08-Jan-18 18:41 47.441179 -122.300841 45 441ft 0kts
08-Jan-18 18:42 47.441179 -122.300841 45 441ft 0kts
08-Jan-18 18:43 47.441179 -122.300841 45 441ft 0kts
08-Jan-18 18:44 47.440924 -122.301092 19 441ft 2kts
08-Jan-18 18:45 47.440344 -122.300999 327 441ft 2kts
08-Jan-18 18:46 47.440184 -122.300791 312 441ft 0kts
08-Jan-18 18:47 47.440291 -122.300978 307 441ft 5kts
08-Jan-18 18:48 47.439895 -122.304750 270 441ft 9kts
08-Jan-18 18:49 47.442345 -122.306341 359 441ft 15kts
08-Jan-18 18:50 47.447437 -122.306299 1 441ft 19kts
08-Jan-18 18:51 47.452775 -122.306225 359 441ft 19kts
08-Jan-18 18:52 47.458759 -122.306168 0 441ft 24kts
08-Jan-18 18:53 47.463750 -122.307144 253 441ft 13kts
08-Jan-18 18:54 47.438305 -122.307711 179 2172ft 147kts
08-Jan-18 18:55 47.386769 -122.308433 181 3867ft 249kts
08-Jan-18 18:56 47.321827 -122.342515 244 8161ft 279kts
08-Jan-18 18:57 47.308206 -122.456513 277 12258ft 294kts
08-Jan-18 18:58 47.310825 -122.577269 270 14928ft 306kts
08-Jan-18 18:59 47.314135 -122.704519 266 18640ft 328kts
08-Jan-18 19:00 47.299322 -122.833607 244 22389ft 329kts
08-Jan-18 19:01 47.264952 -122.960341 244 25823ft 342kts
08-Jan-18 19:02 47.215429 -123.070771 218 29619ft 324kts
08-Jan-18 19:03 47.144013 -123.148436 217 32591ft 321kts
08-Jan-18 19:04 47.072499 -123.225741 217 35153ft 320kts
08-Jan-18 19:05 47.001451 -123.302546 217 37353ft 319kts
08-Jan-18 19:06 46.930041 -123.379770 216 38731ft 330kts
08-Jan-18 19:07 46.838736 -123.400120 184 38767ft 382kts
08-Jan-18 19:08 46.729089 -123.396281 184 38750ft 402kts
08-Jan-18 19:09 46.617793 -123.392838 184 38749ft 401kts
08-Jan-18 19:10 46.506465 -123.389473 184 38748ft 402kts
08-Jan-18 19:11 46.395214 -123.386117 184 38747ft 401kts
08-Jan-18 19:12 46.284180 -123.382767 184 38745ft 402kts
08-Jan-18 19:13 46.172755 -123.379406 184 38744ft 402kts
08-Jan-18 19:14 46.062196 -123.376070 184 38743ft 402kts
08-Jan-18 19:15 45.951110 -123.372718 184 38742ft 403kts
08-Jan-18 19:16 45.842241 -123.369435 184 38752ft 403kts
08-Jan-18 19:17 45.736150 -123.366230 184 38751ft 402kts
08-Jan-18 19:18 45.624505 -123.362864 184 38750ft 403kts
08-Jan-18 19:19 45.512825 -123.359539 182 38750ft 407kts
08-Jan-18 19:20 45.399922 -123.356084 182 38748ft 407kts
08-Jan-18 19:21 45.287104 -123.352674 182 38747ft 407kts
08-Jan-18 19:22 45.174293 -123.349269 182 38745ft 407kts
08-Jan-18 19:23 45.061367 -123.345861 182 38744ft 408kts
08-Jan-18 19:24 44.948260 -123.342447 182 38719ft 408kts
08-Jan-18 19:25 44.837364 -123.339101 182 38725ft 408kts
08-Jan-18 19:26 44.724481 -123.335693 182 38724ft 408kts
08-Jan-18 19:27 44.630304 -123.332859 182 38723ft 410kts
08-Jan-18 19:28 44.498391 -123.328868 182 38749ft 408kts
08-Jan-18 19:29 44.403899 -123.325128 182 38748ft 408kts
08-Jan-18 19:30 44.271695 -123.319949 182 38747ft 408kts
08-Jan-18 19:31 44.177638 -123.316286 182 38738ft 409kts
08-Jan-18 19:32 44.045516 -123.311142 182 38717ft 409kts
08-Jan-18 19:33 43.950995 -123.307462 182 38716ft 409kts
08-Jan-18 19:34 43.820319 -123.302374 182 38726ft 409kts
08-Jan-18 19:35 43.725699 -123.298690 182 38725ft 409kts
08-Jan-18 19:36 43.612322 -123.294275 182 38723ft 409kts
08-Jan-18 19:37 43.498819 -123.289856 182 38723ft 410kts
08-Jan-18 19:38 43.385307 -123.285435 182 38721ft 409kts
08-Jan-18 19:39 43.272040 -123.281024 182 38720ft 410kts
08-Jan-18 19:40 43.158556 -123.276604 182 38719ft 410kts
08-Jan-18 19:41 43.044962 -123.272180 182 38718ft 410kts
08-Jan-18 19:42 42.931406 -123.267757 182 38717ft 410kts
08-Jan-18 19:43 42.819614 -123.263403 182 38726ft 410kts
08-Jan-18 19:44 42.706423 -123.258994 182 38698ft 410kts
08-Jan-18 19:45 42.592967 -123.254576 182 38696ft 410kts
08-Jan-18 19:46 42.479456 -123.250154 182 38695ft 409kts
08-Jan-18 19:47 42.366077 -123.245985 182 38694ft 409kts
08-Jan-18 19:48 42.252577 -123.241839 182 38693ft 409kts
08-Jan-18 19:49 42.139467 -123.237708 182 38717ft 409kts
08-Jan-18 19:50 42.026384 -123.233577 182 38717ft 408kts
08-Jan-18 19:51 41.913145 -123.229441 182 38716ft 408kts
08-Jan-18 19:52 41.812151 -123.225752 182 38726ft 408kts
08-Jan-18 19:53 41.699523 -123.221638 182 38752ft 408kts
08-Jan-18 19:54 41.586524 -123.217557 182 38751ft 407kts
08-Jan-18 19:55 41.475105 -123.213714 182 38749ft 407kts
08-Jan-18 19:56 41.362387 -123.209819 182 38769ft 407kts
08-Jan-18 19:57 41.249611 -123.206704 183 38774ft 407kts
08-Jan-18 19:58 41.136773 -123.203911 183 38773ft 406kts
08-Jan-18 19:59 41.024709 -123.201121 183 38771ft 406kts
08-Jan-18 20:00 40.912390 -123.198329 182 38769ft 404kts
08-Jan-18 20:01 40.811404 -123.195810 182 38780ft 405kts
08-Jan-18 20:02 40.699103 -123.193012 182 38779ft 404kts
08-Jan-18 20:03 40.587075 -123.190222 182 38778ft 404kts
08-Jan-18 20:04 40.474771 -123.187424 182 38777ft 404kts
08-Jan-18 20:05 40.362533 -123.184628 182 38775ft 404kts
08-Jan-18 20:06 40.250304 -123.181833 182 38774ft 404kts
08-Jan-18 20:07 40.138724 -123.179048 182 38798ft 403kts
08-Jan-18 20:08 40.026814 -123.176264 182 38798ft 403kts
08-Jan-18 20:09 39.915099 -123.172686 181 38797ft 403kts
08-Jan-18 20:10 39.809847 -123.167689 184 38808ft 397kts
08-Jan-18 20:11 39.699905 -123.162658 184 38806ft 397kts
08-Jan-18 20:12 39.590023 -123.157617 183 38765ft 396kts
08-Jan-18 20:13 39.487109 -123.145151 174 37656ft 354kts
08-Jan-18 20:14 39.397057 -123.117456 174 36598ft 327kts
08-Jan-18 20:15 39.307383 -123.090122 173 35614ft 333kts
08-Jan-18 20:16 39.217648 -123.062798 173 34600ft 332kts
08-Jan-18 20:17 39.127920 -123.035549 172 33578ft 332kts
08-Jan-18 20:18 39.037806 -123.008247 172 32554ft 336kts
08-Jan-18 20:19 38.946361 -122.980599 172 31519ft 340kts
08-Jan-18 20:20 38.862817 -122.955402 172 30614ft 343kts
08-Jan-18 20:21 38.771331 -122.928353 171 29675ft 346kts
08-Jan-18 20:22 38.677015 -122.900534 170 28232ft 367kts
08-Jan-18 20:23 38.574322 -122.870143 170 26954ft 376kts
08-Jan-18 20:24 38.474421 -122.840724 170 25162ft 365kts
08-Jan-18 20:25 38.377015 -122.812163 170 23357ft 356kts
08-Jan-18 20:26 38.282278 -122.784386 170 21602ft 347kts
08-Jan-18 20:27 38.189486 -122.757256 170 19884ft 339kts
08-Jan-18 20:28 38.098680 -122.729246 170 18190ft 335kts
08-Jan-18 20:29 38.010014 -122.704251 170 16834ft 326kts
08-Jan-18 20:30 37.923014 -122.679818 169 15197ft 318kts
08-Jan-18 20:31 37.849466 -122.620825 143 13603ft 321kts
08-Jan-18 20:32 37.784430 -122.551319 144 12099ft 289kts
08-Jan-18 20:33 37.725907 -122.489332 144 10979ft 270kts
08-Jan-18 20:34 37.667786 -122.427560 143 10973ft 273kts
08-Jan-18 20:35 37.609566 -122.366338 149 10968ft 271kts
08-Jan-18 20:36 37.552048 -122.322396 153 10600ft 233kts
08-Jan-18 20:37 37.496739 -122.280194 153 8953ft 235kts
08-Jan-18 20:38 37.453618 -122.221228 103 7325ft 249kts
08-Jan-18 20:39 37.439211 -122.139304 103 5653ft 233kts
08-Jan-18 20:40 37.478676 -122.106258 322 3968ft 239kts
08-Jan-18 20:41 37.522148 -122.165619 313 2460ft 219kts
08-Jan-18 20:42 37.555882 -122.220081 298 1778ft 194kts
08-Jan-18 20:43 37.576676 -122.269350 298 1576ft 143kts
08-Jan-18 20:44 37.595016 -122.313149 297 833ft 141kts
08-Jan-18 20:45 37.613043 -122.356115 299 95ft 137kts
08-Jan-18 20:46 37.621068 -122.377333 235 21ft 20kts
08-Jan-18 20:47 37.619498 -122.379546 227 21ft 1kts
08-Jan-18 20:48 37.619072 -122.383031 275 21ft 9kts
08-Jan-18 20:49 37.619184 -122.383521 290 21ft 0kts
08-Jan-18 20:50 37.619184 -122.383521 290 21ft 0kts
08-Jan-18 20:51 37.619184 -122.383521 290 21ft 0kts
08-Jan-18 20:52 37.619184 -122.383521 290 21ft 0kts
08-Jan-18 20:53 37.619184 -122.383521 290 21ft 0kts

Navigation Log

Ident Type
Flight plan parsing failed, navigation log unavailable